createdAt,value
2022-09-09T00:01:10.318Z,22.30
2022-09-09T00:03:48.309Z,22.20
2022-09-09T00:06:23.461Z,22.10
2022-09-09T00:09:10.004Z,22.30
2022-09-09T00:11:44.802Z,22.20
2022-09-09T00:14:29.588Z,22.20
2022-09-09T00:17:04.076Z,22.10
2022-09-09T00:19:41.205Z,22.30
2022-09-09T00:22:09.046Z,22.40
2022-09-09T00:24:45.520Z,22.50
2022-09-09T00:27:25.289Z,22.40
2022-09-09T00:30:24.880Z,22.40
2022-09-09T00:33:01.239Z,22.60
2022-09-09T00:35:33.509Z,22.50
2022-09-09T00:38:28.925Z,22.60
2022-09-09T00:41:03.454Z,22.50
2022-09-09T00:43:33.935Z,22.40
2022-09-09T00:46:38.995Z,22.30
2022-09-09T00:49:16.160Z,22.40
2022-09-09T00:52:41.111Z,22.40
2022-09-09T00:55:22.129Z,22.50
2022-09-09T00:57:54.118Z,22.40
2022-09-09T01:00:31.065Z,22.40
2022-09-09T01:03:18.667Z,22.40
2022-09-09T01:06:00.821Z,22.30
2022-09-09T01:08:59.306Z,22.30
2022-09-09T01:11:41.539Z,22.30
2022-09-09T01:14:45.884Z,22.20
2022-09-09T01:17:16.304Z,22.30
2022-09-09T01:19:50.493Z,22.30
2022-09-09T01:22:36.537Z,22.30
2022-09-09T01:25:23.660Z,22.20
2022-09-09T01:28:09.359Z,22.10
2022-09-09T01:30:41.911Z,22.10
2022-09-09T01:33:18.148Z,22.10
2022-09-09T01:36:11.224Z,22.10
2022-09-09T01:38:46.771Z,21.90
2022-09-09T01:41:14.583Z,21.90
2022-09-09T01:43:52.976Z,22.00
2022-09-09T01:46:23.367Z,22.00
2022-09-09T01:48:54.130Z,21.90
2022-09-09T01:51:22.546Z,21.90
2022-09-09T01:53:50.974Z,21.80
2022-09-09T01:56:31.093Z,21.90
2022-09-09T01:59:12.869Z,21.90
2022-09-09T02:02:04.019Z,21.70
2022-09-09T02:04:42.635Z,21.70
2022-09-09T02:07:41.793Z,21.70
2022-09-09T02:10:23.212Z,21.70
2022-09-09T02:13:33.199Z,21.80
2022-09-09T02:16:28.267Z,21.90
2022-09-09T02:19:27.951Z,21.90
2022-09-09T02:22:11.610Z,21.70
2022-09-09T02:24:41.290Z,21.60
2022-09-09T02:27:17.466Z,21.70
2022-09-09T02:29:48.324Z,21.60
2022-09-09T02:32:23.463Z,21.70
2022-09-09T02:34:57.805Z,21.40
2022-09-09T02:37:30.720Z,21.30
2022-09-09T02:39:58.778Z,21.40
2022-09-09T02:42:26.570Z,21.30
2022-09-09T02:44:56.213Z,21.30
2022-09-09T02:47:38.297Z,21.20
2022-09-09T02:50:38.850Z,20.90
2022-09-09T02:53:17.225Z,21.00
2022-09-09T02:56:02.980Z,20.90
2022-09-09T02:58:34.017Z,21.10
2022-09-09T03:01:05.895Z,21.00
2022-09-09T03:03:34.449Z,21.10
2022-09-09T03:06:06.918Z,21.20
2022-09-09T03:08:34.655Z,21.20
2022-09-09T03:11:02.850Z,21.30
2022-09-09T03:13:33.869Z,21.30
2022-09-09T03:16:02.116Z,21.30
2022-09-09T03:18:33.521Z,21.40
2022-09-09T03:21:02.355Z,21.40
2022-09-09T03:23:31.261Z,21.50
2022-09-09T03:26:03.073Z,21.50
2022-09-09T03:28:40.047Z,21.50
2022-09-09T03:31:11.684Z,21.50
2022-09-09T03:33:43.491Z,21.50
2022-09-09T03:36:15.200Z,21.50
2022-09-09T03:38:43.106Z,21.40
2022-09-09T03:41:11.866Z,21.40
2022-09-09T03:43:40.722Z,21.40
2022-09-09T03:46:08.657Z,21.50
2022-09-09T03:48:36.549Z,21.50
2022-09-09T03:51:06.187Z,21.60
2022-09-09T03:53:35.647Z,21.60
2022-09-09T03:56:05.513Z,21.50
2022-09-09T03:58:34.053Z,21.70
2022-09-09T04:01:14.575Z,21.70
2022-09-09T04:03:44.554Z,21.70
2022-09-09T04:06:15.644Z,21.70
2022-09-09T04:08:46.200Z,21.70
2022-09-09T04:11:16.449Z,21.60
2022-09-09T04:13:46.101Z,21.70
2022-09-09T04:16:15.855Z,21.70
2022-09-09T04:18:44.928Z,21.70
2022-09-09T04:21:16.458Z,21.80
2022-09-09T04:23:44.204Z,21.70
2022-09-09T04:26:12.146Z,21.70
2022-09-09T04:28:40.551Z,21.70
2022-09-09T04:31:22.660Z,21.60
2022-09-09T04:33:52.510Z,21.70
2022-09-09T04:36:21.241Z,21.70
2022-09-09T04:38:50.485Z,21.70
2022-09-09T04:41:18.769Z,21.70
2022-09-09T04:43:49.641Z,21.70
2022-09-09T04:46:18.591Z,21.60
2022-09-09T04:48:49.836Z,21.50
2022-09-09T04:51:18.557Z,21.60
2022-09-09T04:53:49.738Z,21.60
2022-09-09T04:56:19.237Z,21.50
2022-09-09T04:58:53.369Z,21.40
2022-09-09T05:01:25.713Z,21.30
2022-09-09T05:03:56.009Z,21.30
2022-09-09T05:06:24.904Z,21.20
2022-09-09T05:08:56.986Z,21.40
2022-09-09T05:11:31.119Z,21.30
2022-09-09T05:14:03.726Z,21.50
2022-09-09T05:16:32.976Z,21.50
2022-09-09T05:19:00.963Z,21.60
2022-09-09T05:21:38.340Z,21.70
2022-09-09T05:24:06.110Z,21.70
2022-09-09T05:26:34.042Z,21.80
2022-09-09T05:29:03.189Z,21.80
2022-09-09T05:31:32.598Z,21.90
2022-09-09T05:34:05.374Z,22.00
2022-09-09T05:36:33.609Z,22.00
2022-09-09T05:39:02.679Z,22.10
2022-09-09T05:41:34.047Z,22.00
2022-09-09T05:44:04.666Z,22.00
2022-09-09T05:46:37.040Z,22.00
2022-09-09T05:49:06.612Z,22.10
2022-09-09T05:51:35.663Z,22.20
2022-09-09T05:54:08.368Z,22.20
2022-09-09T05:56:40.403Z,22.30
2022-09-09T05:59:09.385Z,22.40
2022-09-09T06:01:41.757Z,22.40
2022-09-09T06:04:13.595Z,22.60
2022-09-09T06:06:43.171Z,22.70
2022-09-09T06:09:17.172Z,22.80
2022-09-09T06:11:45.346Z,22.90
2022-09-09T06:14:14.310Z,23.10
2022-09-09T06:16:45.312Z,23.20
2022-09-09T06:19:19.021Z,23.20
2022-09-09T06:21:48.757Z,23.30
2022-09-09T06:24:18.629Z,23.30
2022-09-09T06:26:46.756Z,23.50
2022-09-09T06:29:20.377Z,23.60
2022-09-09T06:31:48.789Z,23.60
2022-09-09T06:34:27.980Z,23.70
2022-09-09T06:36:59.497Z,23.80
2022-09-09T06:39:32.734Z,23.80
2022-09-09T06:42:00.953Z,23.90
2022-09-09T06:44:46.968Z,23.90
2022-09-09T06:47:23.016Z,24.10
2022-09-09T06:49:51.716Z,24.20
2022-09-09T06:52:19.913Z,24.20
2022-09-09T06:54:48.653Z,24.30
2022-09-09T07:00:09.771Z,24.30
2022-09-09T07:02:40.271Z,24.50
2022-09-09T07:05:09.782Z,24.50
2022-09-09T07:07:38.652Z,24.60
2022-09-09T07:10:08.666Z,24.60
2022-09-09T07:12:38.748Z,24.70
2022-09-09T07:15:10.904Z,24.80
2022-09-09T07:17:40.724Z,24.80
2022-09-09T07:20:09.154Z,24.80
2022-09-09T07:22:37.400Z,24.90
2022-09-09T07:25:06.661Z,24.90
2022-09-09T07:27:35.122Z,25.00
2022-09-09T07:30:03.664Z,25.10
2022-09-09T07:32:33.914Z,25.10
2022-09-09T07:35:02.404Z,25.10
2022-09-09T07:37:30.368Z,25.20
2022-09-09T07:39:59.885Z,25.30
2022-09-09T07:42:28.142Z,25.30
2022-09-09T07:44:56.363Z,25.30
2022-09-09T07:47:25.872Z,25.30
2022-09-09T07:49:53.701Z,25.30
2022-09-09T07:52:27.707Z,25.30
2022-09-09T07:55:01.427Z,25.30
2022-09-09T07:57:33.805Z,25.30
2022-09-09T08:00:03.303Z,25.20
2022-09-09T08:02:40.061Z,25.30
2022-09-09T08:05:09.207Z,25.40
2022-09-09T08:07:38.406Z,25.50
2022-09-09T08:10:07.564Z,25.60
2022-09-09T08:12:37.808Z,25.70
2022-09-09T08:15:06.980Z,25.70
2022-09-09T08:17:35.460Z,25.70
2022-09-09T08:20:07.123Z,25.60
2022-09-09T08:22:36.499Z,25.80
2022-09-09T08:25:07.583Z,25.90
2022-09-09T08:27:36.634Z,26.00
2022-09-09T08:30:05.711Z,26.10
2022-09-09T08:32:33.465Z,26.10
2022-09-09T08:35:01.978Z,26.20
2022-09-09T08:37:31.152Z,26.20
2022-09-09T08:39:58.950Z,26.30
2022-09-09T08:42:27.210Z,26.20
2022-09-09T08:45:02.014Z,26.30
2022-09-09T08:47:48.356Z,26.50
2022-09-09T08:50:35.173Z,26.40
2022-09-09T08:53:18.805Z,26.40
2022-09-09T08:56:00.465Z,26.50
2022-09-09T08:58:53.964Z,26.60
2022-09-09T09:01:41.651Z,26.60
2022-09-09T09:04:30.586Z,26.40
2022-09-09T09:07:22.324Z,26.50
2022-09-09T09:10:18.945Z,26.70
2022-09-09T09:12:54.595Z,26.90
2022-09-09T09:15:32.742Z,26.90
2022-09-09T09:18:01.196Z,27.10
2022-09-09T09:20:50.376Z,27.30
2022-09-09T09:23:37.849Z,27.30
2022-09-09T09:26:10.490Z,27.40
2022-09-09T09:28:40.497Z,27.50
2022-09-09T09:31:15.061Z,27.60
2022-09-09T09:33:55.372Z,27.70
2022-09-09T09:36:43.980Z,27.70
2022-09-09T09:42:23.861Z,28.00
2022-09-09T09:44:55.061Z,28.30
2022-09-09T09:47:25.250Z,28.40
2022-09-09T09:50:20.807Z,28.70
2022-09-09T09:53:00.443Z,28.80
2022-09-09T09:55:32.766Z,28.70
2022-09-09T09:58:08.514Z,28.80
2022-09-09T10:00:50.683Z,28.60
2022-09-09T10:03:33.962Z,28.50
2022-09-09T10:06:03.179Z,28.10
2022-09-09T10:08:34.806Z,26.40
2022-09-09T10:11:34.204Z,25.30
2022-09-09T10:14:28.859Z,23.90
2022-09-09T10:17:37.933Z,23.10
2022-09-09T10:20:11.772Z,22.90
2022-09-09T10:22:55.659Z,22.40
2022-09-09T10:25:38.439Z,22.00
2022-09-09T10:28:28.094Z,21.50
2022-09-09T10:31:02.060Z,21.10
2022-09-09T10:33:58.509Z,20.90
2022-09-09T10:36:27.883Z,20.90
2022-09-09T10:39:06.425Z,20.80
2022-09-09T10:41:44.405Z,20.90
2022-09-09T10:44:31.868Z,21.00
2022-09-09T10:47:20.836Z,21.20
2022-09-09T10:50:14.442Z,21.20
2022-09-09T10:52:49.227Z,21.10
2022-09-09T10:55:29.716Z,21.10
2022-09-09T10:58:01.253Z,21.10
2022-09-09T11:00:57.872Z,21.20
2022-09-09T11:03:30.665Z,21.20
2022-09-09T11:06:17.189Z,21.30
2022-09-09T11:08:45.032Z,21.40
2022-09-09T11:11:22.302Z,21.80
2022-09-09T11:13:53.048Z,22.10
2022-09-09T11:16:41.305Z,22.70
2022-09-09T11:19:31.553Z,23.00
2022-09-09T11:22:03.556Z,23.20
2022-09-09T11:24:41.905Z,23.30
2022-09-09T11:27:33.310Z,23.40
2022-09-09T11:30:08.076Z,23.50
2022-09-09T11:32:54.640Z,23.60
2022-09-09T11:35:40.796Z,24.00
2022-09-09T11:38:26.967Z,24.20
2022-09-09T11:41:02.735Z,24.40
2022-09-09T11:43:41.567Z,24.60
2022-09-09T11:46:10.987Z,24.80
2022-09-09T11:48:44.494Z,24.90
2022-09-09T11:51:33.535Z,25.00
2022-09-09T11:54:20.570Z,25.10
2022-09-09T11:56:48.551Z,25.50
2022-09-09T11:59:33.458Z,25.60
2022-09-09T12:02:35.694Z,25.50
2022-09-09T12:05:15.297Z,25.50
2022-09-09T12:07:48.346Z,25.70
2022-09-09T12:10:42.429Z,26.20
2022-09-09T12:13:20.595Z,26.40
2022-09-09T12:15:50.847Z,26.30
2022-09-09T12:18:26.444Z,26.40
2022-09-09T12:21:14.524Z,26.50
2022-09-09T12:23:52.775Z,26.50
2022-09-09T12:26:38.230Z,26.50
2022-09-09T12:29:13.420Z,26.70
2022-09-09T12:31:48.355Z,26.80
2022-09-09T12:34:22.070Z,27.00
2022-09-09T12:36:58.405Z,27.30
2022-09-09T12:39:29.413Z,27.40
2022-09-09T12:41:58.271Z,27.50
2022-09-09T12:44:29.870Z,27.50
2022-09-09T12:47:04.754Z,27.60
2022-09-09T12:49:42.291Z,27.40
2022-09-09T12:52:36.909Z,27.60
2022-09-09T12:55:06.216Z,27.50
2022-09-09T12:57:37.853Z,27.70
2022-09-09T13:00:17.044Z,27.70
2022-09-09T13:02:56.835Z,28.00
2022-09-09T13:05:39.985Z,28.10
2022-09-09T13:08:12.525Z,28.30
2022-09-09T13:10:53.686Z,28.40
2022-09-09T13:13:27.657Z,28.40
2022-09-09T13:16:00.247Z,28.50
2022-09-09T13:18:31.837Z,28.30
2022-09-09T13:20:59.555Z,28.70
2022-09-09T13:23:31.149Z,28.70
2022-09-09T13:26:08.877Z,28.90
2022-09-09T13:28:36.899Z,28.80
2022-09-09T13:31:08.214Z,28.80
2022-09-09T13:33:38.577Z,28.90
2022-09-09T13:36:06.891Z,29.00
2022-09-09T13:38:52.696Z,28.90
2022-09-09T13:41:29.724Z,29.00
2022-09-09T13:43:58.721Z,28.80
2022-09-09T13:46:43.652Z,28.80
2022-09-09T13:49:11.315Z,28.60
2022-09-09T13:51:41.520Z,28.60
2022-09-09T13:54:14.050Z,28.50
2022-09-09T13:56:43.317Z,28.50
2022-09-09T13:59:17.324Z,28.90
2022-09-09T14:01:45.453Z,29.00
2022-09-09T14:04:13.223Z,29.00
2022-09-09T14:06:41.482Z,28.90
2022-09-09T14:09:12.997Z,28.90
2022-09-09T14:11:41.703Z,28.70
2022-09-09T14:14:09.378Z,28.60
2022-09-09T14:16:37.585Z,28.40
2022-09-09T14:19:05.609Z,28.20
2022-09-09T14:21:33.799Z,28.10
2022-09-09T14:24:01.575Z,28.30
2022-09-09T14:26:31.009Z,28.40
2022-09-09T14:28:59.198Z,28.40
2022-09-09T14:31:27.344Z,28.30
2022-09-09T14:33:55.174Z,28.20
2022-09-09T14:36:24.066Z,28.30
2022-09-09T14:38:53.101Z,28.30
2022-09-09T14:41:23.455Z,28.20
2022-09-09T14:43:51.695Z,28.10
2022-09-09T14:46:21.259Z,28.30
2022-09-09T14:48:55.420Z,28.20
2022-09-09T14:51:26.257Z,28.00
2022-09-09T14:53:55.485Z,28.10
2022-09-09T14:56:26.123Z,28.00
2022-09-09T14:58:58.572Z,27.80
2022-09-09T15:01:30.533Z,27.80
2022-09-09T15:04:03.497Z,27.70
2022-09-09T15:06:39.652Z,27.70
2022-09-09T15:09:07.435Z,27.70
2022-09-09T15:11:40.672Z,27.60
2022-09-09T15:14:10.573Z,27.50
2022-09-09T15:16:39.289Z,27.50
2022-09-09T15:19:07.200Z,27.60
2022-09-09T15:21:37.243Z,27.50
2022-09-09T15:24:05.999Z,27.30
2022-09-09T15:26:34.171Z,27.30
2022-09-09T15:29:02.231Z,27.30
2022-09-09T15:31:32.860Z,27.30
2022-09-09T15:34:06.277Z,27.20
2022-09-09T15:36:44.433Z,27.20
2022-09-09T15:39:16.846Z,27.20
2022-09-09T15:41:45.714Z,27.10
2022-09-09T15:44:13.883Z,27.00
2022-09-09T15:46:59.716Z,27.00
2022-09-09T15:49:28.057Z,27.00
2022-09-09T15:51:58.581Z,26.90
2022-09-09T15:54:27.843Z,26.80
2022-09-09T15:57:01.044Z,26.80
2022-09-09T15:59:31.198Z,26.70
2022-09-09T16:02:01.131Z,26.70
2022-09-09T16:04:30.276Z,26.80
2022-09-09T16:07:01.111Z,26.70
2022-09-09T16:09:29.810Z,26.70
2022-09-09T16:11:59.979Z,26.60
2022-09-09T16:14:28.306Z,26.60
2022-09-09T16:16:58.520Z,26.70
2022-09-09T16:19:26.553Z,26.70
2022-09-09T16:21:54.234Z,26.60
2022-09-09T16:24:22.294Z,26.50
2022-09-09T16:26:52.442Z,26.50
2022-09-09T16:29:22.993Z,26.40
2022-09-09T16:31:52.615Z,26.30
2022-09-09T16:34:20.718Z,26.20
2022-09-09T16:36:49.748Z,26.20
2022-09-09T16:39:20.067Z,26.00
2022-09-09T16:41:49.472Z,26.00
2022-09-09T16:44:19.939Z,26.00
2022-09-09T16:46:56.882Z,26.00
2022-09-09T16:49:29.572Z,26.00
2022-09-09T16:52:00.291Z,25.90
2022-09-09T16:54:28.470Z,25.80
2022-09-09T16:56:56.255Z,25.90
2022-09-09T16:59:24.631Z,25.90
2022-09-09T17:01:53.601Z,25.80
2022-09-09T17:04:28.970Z,25.70
2022-09-09T17:06:58.679Z,25.70
2022-09-09T17:09:30.310Z,25.70
2022-09-09T17:11:58.393Z,25.60
2022-09-09T17:14:26.307Z,25.60
2022-09-09T17:16:54.031Z,25.50
2022-09-09T17:19:21.757Z,25.40
2022-09-09T17:22:14.938Z,25.30
2022-09-09T17:24:39.657Z,25.20
2022-09-09T17:27:07.897Z,25.10
2022-09-09T17:29:37.117Z,25.10
2022-09-09T17:32:06.523Z,24.80
2022-09-09T17:34:35.392Z,24.80
2022-09-09T17:37:03.246Z,24.80
2022-09-09T17:39:31.243Z,24.80
2022-09-09T17:41:59.087Z,24.60
2022-09-09T17:44:27.648Z,24.50
2022-09-09T17:46:57.131Z,24.50
2022-09-09T17:49:25.368Z,24.40
2022-09-09T17:51:53.457Z,24.50
2022-09-09T17:54:21.865Z,24.30
2022-09-09T17:56:49.819Z,24.20
2022-09-09T17:59:18.995Z,24.20
2022-09-09T18:01:49.832Z,24.10
2022-09-09T18:04:19.199Z,24.30
2022-09-09T18:06:50.844Z,24.30
2022-09-09T18:09:21.176Z,24.20
2022-09-09T18:11:51.010Z,24.20
2022-09-09T18:14:22.262Z,24.10
2022-09-09T18:16:50.913Z,24.20
2022-09-09T18:19:22.303Z,24.20
2022-09-09T18:21:50.842Z,24.20
2022-09-09T18:24:21.068Z,24.00
2022-09-09T18:26:49.710Z,23.90
2022-09-09T18:29:20.294Z,23.60
2022-09-09T18:31:49.044Z,23.60
2022-09-09T18:34:18.585Z,23.60
2022-09-09T18:36:56.828Z,23.50
2022-09-09T18:39:27.716Z,23.70
2022-09-09T18:42:00.847Z,23.70
2022-09-09T18:44:31.968Z,23.80
2022-09-09T18:46:59.881Z,23.60
2022-09-09T18:49:28.054Z,23.60
2022-09-09T18:51:56.643Z,23.60
2022-09-09T18:54:30.210Z,23.80
2022-09-09T18:57:00.887Z,23.70
2022-09-09T18:59:29.517Z,23.70
2022-09-09T19:01:57.156Z,23.80
2022-09-09T19:04:27.565Z,23.60
2022-09-09T19:06:59.112Z,23.70
2022-09-09T19:09:31.727Z,23.70
2022-09-09T19:12:02.948Z,23.60
2022-09-09T19:14:30.801Z,23.50
2022-09-09T19:16:59.170Z,23.50
2022-09-09T19:19:32.114Z,23.50
2022-09-09T19:22:00.826Z,23.30
2022-09-09T19:24:30.945Z,23.20
2022-09-09T19:27:01.965Z,23.20
2022-09-09T19:29:32.582Z,23.30
2022-09-09T19:32:42.290Z,23.30
2022-09-09T19:34:51.694Z,23.20
2022-09-09T19:37:19.948Z,23.20
2022-09-09T19:39:48.309Z,23.10
2022-09-09T19:42:16.227Z,23.10
2022-09-09T19:44:44.028Z,23.20
2022-09-09T19:47:13.171Z,23.00
2022-09-09T19:49:43.897Z,23.00
2022-09-09T19:52:14.139Z,23.00
2022-09-09T19:54:41.769Z,23.00
2022-09-09T19:57:10.327Z,23.00
2022-09-09T19:59:38.149Z,23.10
2022-09-09T20:02:05.981Z,23.00
2022-09-09T20:04:35.433Z,23.00
2022-09-09T20:07:03.096Z,22.90
2022-09-09T20:09:30.851Z,22.80
2022-09-09T20:11:59.353Z,22.90
2022-09-09T20:14:27.400Z,23.10
2022-09-09T20:16:55.187Z,23.10
2022-09-09T20:19:22.945Z,23.00
2022-09-09T20:21:52.278Z,23.00
2022-09-09T20:24:23.132Z,23.00
2022-09-09T20:26:51.083Z,23.00
2022-09-09T20:29:20.315Z,22.90
2022-09-09T20:31:48.329Z,22.90
2022-09-09T20:34:19.270Z,22.90
2022-09-09T20:36:47.640Z,23.00
2022-09-09T20:39:18.350Z,23.10
2022-09-09T20:41:46.556Z,23.00
2022-09-09T20:44:19.450Z,22.90
2022-09-09T20:46:49.262Z,23.00
2022-09-09T20:49:20.161Z,22.90
2022-09-09T20:51:50.561Z,22.80
2022-09-09T20:54:30.659Z,23.00
2022-09-09T20:57:00.536Z,22.90
2022-09-09T20:59:31.337Z,23.00
2022-09-09T21:02:01.100Z,23.00
2022-09-09T21:04:29.490Z,23.00
2022-09-09T21:06:57.855Z,22.90
2022-09-09T21:09:25.867Z,23.00
2022-09-09T21:11:53.884Z,22.90
2022-09-09T21:14:22.802Z,22.90
2022-09-09T21:16:51.241Z,22.70
2022-09-09T21:19:19.638Z,22.70
2022-09-09T21:21:48.124Z,22.60
2022-09-09T21:24:16.767Z,22.60
2022-09-09T21:26:44.807Z,22.70
2022-09-09T21:29:13.753Z,22.50
2022-09-09T21:31:43.327Z,22.40
2022-09-09T21:34:13.759Z,22.40
2022-09-09T21:36:41.493Z,22.50
2022-09-09T21:39:09.440Z,22.50
2022-09-09T21:41:37.282Z,22.50
2022-09-09T21:44:05.101Z,22.50
2022-09-09T21:46:33.155Z,22.50
2022-09-09T21:49:04.022Z,22.30
2022-09-09T21:51:31.912Z,22.20
2022-09-09T21:53:59.962Z,22.20
2022-09-09T21:56:27.983Z,22.30
2022-09-09T21:59:04.098Z,22.30
2022-09-09T22:01:34.301Z,22.40
2022-09-09T22:04:03.028Z,22.30
2022-09-09T22:06:31.397Z,22.30
2022-09-09T22:09:00.165Z,22.40
2022-09-09T22:11:30.264Z,22.30
2022-09-09T22:13:58.225Z,22.30
2022-09-09T22:16:26.014Z,22.30
2022-09-09T22:18:56.948Z,22.30
2022-09-09T22:21:27.334Z,22.20
2022-09-09T22:23:57.924Z,22.20
2022-09-09T22:26:27.247Z,22.20
2022-09-09T22:28:57.362Z,22.30
2022-09-09T22:31:26.257Z,22.10
2022-09-09T22:33:54.882Z,22.20
2022-09-09T22:36:22.985Z,22.10
2022-09-09T22:38:51.619Z,22.00
2022-09-09T22:41:20.433Z,22.00
2022-09-09T22:43:49.796Z,22.00
2022-09-09T22:46:19.022Z,22.00
2022-09-09T22:48:47.056Z,21.80
2022-09-09T22:51:16.143Z,21.80
2022-09-09T22:53:45.349Z,21.90
2022-09-09T22:56:17.388Z,21.90
2022-09-09T22:58:46.366Z,21.70
2022-09-09T23:01:17.200Z,21.60
2022-09-09T23:03:49.151Z,21.50
2022-09-09T23:06:22.988Z,21.40
2022-09-09T23:08:56.040Z,21.30
2022-09-09T23:11:28.186Z,21.30
2022-09-09T23:13:58.906Z,21.30
2022-09-09T23:16:39.792Z,21.30
2022-09-09T23:19:13.250Z,21.20
2022-09-09T23:21:42.229Z,21.20
2022-09-09T23:24:12.858Z,21.10
2022-09-09T23:26:41.906Z,21.00
2022-09-09T23:29:14.744Z,21.00
2022-09-09T23:31:45.494Z,21.00
2022-09-09T23:34:14.045Z,20.90
2022-09-09T23:36:41.898Z,20.90
2022-09-09T23:39:11.232Z,20.80
2022-09-09T23:41:40.397Z,21.00
2022-09-09T23:44:08.342Z,21.00
2022-09-09T23:46:37.170Z,20.90
2022-09-09T23:49:05.201Z,20.90
2022-09-09T23:51:34.941Z,21.00
2022-09-09T23:54:05.060Z,21.00
2022-09-09T23:56:38.749Z,20.90
2022-09-09T23:59:07.979Z,20.90
